Time;durP1;ratioP1;P1;durP2;ratioP2;P2;SDS_P1;SDS_P2;PMS_P1;PMS_P2;Temp;Humidity;BMP_temperature;BMP_pressure;BME280_temperature;BME280_humidity;BME280_pressure;Samples;Min_cycle;Max_cycle;Signal;HPM_P1;HPM_P2
2023/08/31 00:00:11;;;;;;;1.20;1.10;;;17.00;99.90;;;;;;4969210;28;20096;-70
2023/08/31 00:02:39;;;;;;;1.25;1.00;;;16.90;99.90;;;;;;4966030;28;20045;-70
2023/08/31 00:05:05;;;;;;;2.65;1.00;;;17.00;99.90;;;;;;4966804;28;20073;-70
2023/08/31 00:07:31;;;;;;;1.10;1.00;;;17.00;99.90;;;;;;4966968;28;20518;-71
2023/08/31 00:09:58;;;;;;;1.23;1.10;;;17.10;99.90;;;;;;4967270;28;20216;-70
2023/08/31 00:12:24;;;;;;;1.08;1.00;;;17.10;99.90;;;;;;4972797;28;20031;-70
2023/08/31 00:14:50;;;;;;;2.45;1.17;;;17.20;99.90;;;;;;4977673;28;20222;-70
2023/08/31 00:17:17;;;;;;;1.40;0.90;;;17.20;99.90;;;;;;4960494;28;20037;-70
2023/08/31 00:19:43;;;;;;;1.55;1.00;;;17.20;99.90;;;;;;4972975;28;20030;-71
2023/08/31 00:22:09;;;;;;;1.17;1.10;;;17.20;99.90;;;;;;4974387;28;20034;-70
2023/08/31 00:24:36;;;;;;;1.40;1.15;;;17.20;99.90;;;;;;4978112;28;20084;-70
2023/08/31 00:27:03;;;;;;;1.08;0.98;;;17.20;99.90;;;;;;4973531;28;20030;-72
2023/08/31 00:29:29;;;;;;;1.17;1.08;;;17.20;99.90;;;;;;4977182;28;20046;-69
2023/08/31 00:31:56;;;;;;;1.90;1.05;;;17.10;99.90;;;;;;4977440;28;20044;-71
2023/08/31 00:34:21;;;;;;;0.90;0.90;;;17.10;99.90;;;;;;4980414;28;20105;-70
2023/08/31 00:36:48;;;;;;;1.20;1.10;;;17.00;99.90;;;;;;4963190;28;20054;-70
2023/08/31 00:39:14;;;;;;;1.60;1.27;;;16.90;99.90;;;;;;4978382;28;20863;-70
2023/08/31 00:41:40;;;;;;;0.80;0.80;;;16.90;99.90;;;;;;4975562;28;20035;-70
2023/08/31 00:44:05;;;;;;;1.30;1.20;;;16.90;99.90;;;;;;4972131;28;21280;-70
2023/08/31 00:46:32;;;;;;;2.08;1.20;;;16.90;99.90;;;;;;4974760;28;20030;-70
2023/08/31 00:48:58;;;;;;;2.88;1.20;;;16.90;99.90;;;;;;4972794;28;20085;-70
2023/08/31 00:51:24;;;;;;;2.95;1.35;;;16.90;99.90;;;;;;4974556;28;20106;-70
2023/08/31 00:53:54;;;;;;;1.58;1.08;;;16.90;99.90;;;;;;4975554;28;20093;-71
2023/08/31 00:56:20;;;;;;;2.00;1.40;;;16.90;99.90;;;;;;4977145;28;20531;-70
2023/08/31 00:58:46;;;;;;;1.50;1.40;;;16.90;99.90;;;;;;4971788;28;20042;-70
2023/08/31 01:01:32;;;;;;;1.30;1.20;;;16.90;99.90;;;;;;4970964;28;20030;-71
2023/08/31 01:04:23;;;;;;;1.50;1.30;;;16.90;99.90;;;;;;4971736;28;20030;-70
2023/08/31 01:07:12;;;;;;;12.80;1.83;;;16.90;99.90;;;;;;4971650;28;20024;-70
2023/08/31 01:10:12;;;;;;;1.38;1.27;;;17.00;99.90;;;;;;4970993;28;20105;-70
2023/08/31 01:13:13;;;;;;;1.60;1.13;;;17.00;99.90;;;;;;4973173;28;20107;-70
2023/08/31 01:15:44;;;;;;;1.40;1.30;;;17.00;99.90;;;;;;4969577;28;20543;-70
2023/08/31 01:18:13;;;;;;;2.35;1.30;;;17.00;99.90;;;;;;4968886;28;20030;-70
2023/08/31 01:20:47;;;;;;;2.67;1.63;;;17.10;99.90;;;;;;4972714;28;20022;-71
2023/08/31 01:23:20;;;;;;;1.42;1.15;;;17.10;99.90;;;;;;4972570;28;20037;-71
2023/08/31 01:25:48;;;;;;;2.30;1.38;;;17.20;99.90;;;;;;4969627;28;20022;-71
2023/08/31 01:28:13;;;;;;;8.95;2.80;;;17.20;99.90;;;;;;4970083;28;20470;-69
2023/08/31 01:30:40;;;;;;;1.25;1.15;;;17.30;99.90;;;;;;4970980;28;20030;-70
2023/08/31 01:33:06;;;;;;;1.33;1.23;;;17.30;99.90;;;;;;4975281;28;20621;-70
2023/08/31 01:35:41;;;;;;;2.92;1.17;;;17.40;99.90;;;;;;4967088;28;20030;-71
2023/08/31 01:38:08;;;;;;;1.70;1.60;;;17.30;99.90;;;;;;4975386;28;20042;-70
2023/08/31 01:41:01;;;;;;;1.42;1.33;;;17.30;99.90;;;;;;4967085;28;20038;-70
2023/08/31 01:43:27;;;;;;;1.73;1.63;;;17.30;99.90;;;;;;4963552;28;20161;-70
2023/08/31 01:45:54;;;;;;;1.45;1.35;;;17.20;99.90;;;;;;4962586;28;20038;-70
2023/08/31 01:48:19;;;;;;;1.40;1.30;;;17.30;99.90;;;;;;4970955;28;20062;-70
2023/08/31 01:50:45;;;;;;;1.48;1.38;;;17.30;99.90;;;;;;4967942;28;20556;-70
2023/08/31 01:53:10;;;;;;;1.55;1.45;;;17.30;99.90;;;;;;4965681;28;20045;-70
2023/08/31 01:55:37;;;;;;;1.58;1.48;;;17.20;99.90;;;;;;4972886;28;20026;-69
2023/08/31 01:58:03;;;;;;;10.30;1.58;;;17.20;99.90;;;;;;4969399;28;20039;-71
2023/08/31 02:00:28;;;;;;;1.50;1.40;;;17.10;99.90;;;;;;4966148;28;21598;-70
2023/08/31 02:02:54;;;;;;;1.88;1.77;;;17.10;99.90;;;;;;4972931;28;20124;-71
2023/08/31 02:05:19;;;;;;;1.73;1.60;;;17.10;99.90;;;;;;4975926;28;20202;-70
2023/08/31 02:07:45;;;;;;;1.55;1.45;;;17.10;99.90;;;;;;4974715;28;20450;-70
2023/08/31 02:10:11;;;;;;;1.30;1.20;;;17.10;99.90;;;;;;4969773;28;20034;-70
2023/08/31 02:12:36;;;;;;;2.63;1.58;;;17.10;99.90;;;;;;4970146;28;20038;-70
2023/08/31 02:15:05;;;;;;;1.50;1.40;;;17.10;99.90;;;;;;4974920;28;20098;-70
2023/08/31 02:17:30;;;;;;;1.55;1.45;;;17.00;99.90;;;;;;4972642;28;20438;-70
2023/08/31 02:19:57;;;;;;;1.23;1.23;;;17.00;99.90;;;;;;4974004;28;20042;-70
2023/08/31 02:22:23;;;;;;;1.55;1.45;;;17.00;99.90;;;;;;4973429;28;20030;-69
2023/08/31 02:24:49;;;;;;;1.40;1.30;;;17.00;99.90;;;;;;4972549;28;20432;-70
2023/08/31 02:27:14;;;;;;;2.33;1.52;;;17.00;99.90;;;;;;4974929;28;20054;-72
2023/08/31 02:29:40;;;;;;;1.30;1.20;;;16.90;99.90;;;;;;4965265;28;20039;-71
2023/08/31 02:32:06;;;;;;;1.48;1.38;;;16.80;99.90;;;;;;4968740;28;20118;-72
2023/08/31 02:34:32;;;;;;;1.60;1.50;;;16.80;99.90;;;;;;4971987;28;20129;-72
2023/08/31 02:36:57;;;;;;;1.58;1.48;;;16.80;99.90;;;;;;4968545;28;20411;-71
2023/08/31 02:39:23;;;;;;;1.35;1.25;;;16.80;99.90;;;;;;4974588;28;20101;-72
2023/08/31 02:41:49;;;;;;;1.30;1.20;;;16.70;99.90;;;;;;4969045;28;20056;-72
2023/08/31 02:44:14;;;;;;;1.83;1.40;;;16.80;99.90;;;;;;4968162;28;20046;-71
2023/08/31 02:46:40;;;;;;;1.67;1.45;;;16.80;99.90;;;;;;4967799;28;20035;-71
2023/08/31 02:49:05;;;;;;;1.58;1.48;;;16.70;99.90;;;;;;4972958;28;20031;-71
2023/08/31 02:51:31;;;;;;;3.85;1.33;;;16.80;99.90;;;;;;4969872;28;20030;-72
2023/08/31 02:53:57;;;;;;;1.98;1.30;;;16.80;99.90;;;;;;4973638;28;20037;-72
2023/08/31 02:56:23;;;;;;;1.42;1.33;;;16.90;99.90;;;;;;4970954;28;20029;-72
2023/08/31 02:58:48;;;;;;;1.33;1.23;;;16.90;99.90;;;;;;4970956;28;20038;-72
2023/08/31 03:01:14;;;;;;;2.10;1.23;;;16.90;99.90;;;;;;4970357;28;20031;-71
2023/08/31 03:03:41;;;;;;;1.75;0.98;;;16.90;99.90;;;;;;4967499;28;20039;-72
2023/08/31 03:06:08;;;;;;;1.20;1.08;;;16.90;99.90;;;;;;4970632;28;20027;-72
2023/08/31 03:08:34;;;;;;;0.93;0.93;;;16.80;99.90;;;;;;4969329;28;20484;-71
2023/08/31 03:11:00;;;;;;;1.50;1.00;;;16.80;99.90;;;;;;4967331;28;21203;-72
2023/08/31 03:13:26;;;;;;;1.25;1.15;;;16.90;99.90;;;;;;4969279;28;20125;-72
2023/08/31 03:15:51;;;;;;;1.00;1.00;;;16.90;99.90;;;;;;4972552;28;20054;-72
2023/08/31 03:18:17;;;;;;;1.88;1.25;;;16.80;99.90;;;;;;4970338;28;20046;-71
2023/08/31 03:20:42;;;;;;;1.00;0.90;;;16.90;99.90;;;;;;4967290;28;20044;-71
2023/08/31 03:23:09;;;;;;;2.22;1.20;;;16.90;99.90;;;;;;4971992;28;20058;-68
2023/08/31 03:25:35;;;;;;;1.40;1.30;;;16.80;99.90;;;;;;4968483;28;20030;-70
2023/08/31 03:28:00;;;;;;;1.10;1.00;;;16.80;99.90;;;;;;4970375;28;20103;-70
2023/08/31 03:30:26;;;;;;;3.05;1.40;;;16.80;99.90;;;;;;4969409;28;20042;-70
2023/08/31 03:32:51;;;;;;;1.02;1.02;;;16.70;99.90;;;;;;4969557;28;20030;-70
2023/08/31 03:35:17;;;;;;;2.50;1.17;;;16.70;99.90;;;;;;4968952;28;20031;-69
2023/08/31 03:37:46;;;;;;;1.20;1.10;;;16.80;99.90;;;;;;4971629;28;20046;-69
2023/08/31 03:40:12;;;;;;;1.67;1.30;;;16.70;99.90;;;;;;4968267;28;20583;-70
2023/08/31 03:42:37;;;;;;;1.80;1.23;;;16.80;99.90;;;;;;4970557;28;20113;-70
2023/08/31 03:45:04;;;;;;;1.70;1.60;;;16.80;99.90;;;;;;4970810;28;20034;-70
2023/08/31 03:47:30;;;;;;;1.50;1.40;;;16.80;99.90;;;;;;4968793;28;20114;-70
2023/08/31 03:49:56;;;;;;;2.17;1.98;;;16.70;99.90;;;;;;4967380;28;20219;-70
2023/08/31 03:52:22;;;;;;;3.20;1.88;;;16.70;99.90;;;;;;4971342;28;20034;-70
2023/08/31 03:54:48;;;;;;;2.10;1.90;;;16.50;99.90;;;;;;4975772;28;20022;-69
2023/08/31 03:57:13;;;;;;;2.60;2.10;;;16.40;99.90;;;;;;4967729;28;20027;-69
2023/08/31 03:59:39;;;;;;;2.75;2.00;;;16.30;99.90;;;;;;4973505;28;20049;-69
2023/08/31 04:02:05;;;;;;;3.72;3.42;;;16.30;99.90;;;;;;4964986;28;20681;-69
2023/08/31 04:04:30;;;;;;;2.92;2.50;;;16.20;99.90;;;;;;4966020;28;20062;-70
2023/08/31 04:06:56;;;;;;;3.67;2.50;;;16.10;99.90;;;;;;4968056;28;20033;-70
2023/08/31 04:09:21;;;;;;;2.75;2.55;;;16.00;99.90;;;;;;4977126;28;20030;-70
2023/08/31 04:11:47;;;;;;;3.75;2.45;;;15.90;99.90;;;;;;4968682;28;20030;-70
2023/08/31 04:14:13;;;;;;;2.85;2.65;;;15.90;99.90;;;;;;4967233;28;20038;-70
2023/08/31 04:16:38;;;;;;;2.58;2.40;;;15.90;99.90;;;;;;4973133;28;20023;-70
2023/08/31 04:19:04;;;;;;;3.65;2.50;;;15.90;99.90;;;;;;4969611;28;20575;-69
2023/08/31 04:21:29;;;;;;;3.55;2.90;;;16.00;99.90;;;;;;4969291;28;20038;-70
2023/08/31 04:23:55;;;;;;;2.85;2.65;;;16.00;99.90;;;;;;4972371;28;20042;-70
2023/08/31 04:26:21;;;;;;;2.60;2.40;;;16.00;99.90;;;;;;4965534;28;20089;-70
2023/08/31 04:28:47;;;;;;;2.80;2.60;;;16.10;99.90;;;;;;4972902;28;20034;-69
2023/08/31 04:31:12;;;;;;;3.55;2.72;;;16.10;99.90;;;;;;4971446;28;20061;-69
2023/08/31 04:33:40;;;;;;;3.60;2.80;;;16.10;99.90;;;;;;4968068;28;20041;-70
2023/08/31 04:36:05;;;;;;;3.00;2.80;;;16.20;99.90;;;;;;4967068;28;20067;-69
2023/08/31 04:38:32;;;;;;;3.17;2.88;;;16.20;99.90;;;;;;4969456;28;20042;-69
2023/08/31 04:41:01;;;;;;;2.72;2.53;;;16.20;99.90;;;;;;4970646;28;20031;-70
2023/08/31 04:43:27;;;;;;;2.35;2.15;;;16.20;99.90;;;;;;4973143;28;20062;-70
2023/08/31 04:45:53;;;;;;;2.38;2.13;;;16.20;99.90;;;;;;4968803;28;20023;-69
2023/08/31 04:48:19;;;;;;;2.83;2.50;;;16.20;99.90;;;;;;4968953;28;20056;-69
2023/08/31 04:50:45;;;;;;;2.85;2.65;;;16.20;99.90;;;;;;4965549;28;20034;-71
2023/08/31 04:53:11;;;;;;;3.55;2.70;;;16.20;99.90;;;;;;4961161;28;20031;-72
2023/08/31 04:55:37;;;;;;;2.58;2.38;;;16.30;99.90;;;;;;4964069;28;20030;-70
2023/08/31 04:58:03;;;;;;;2.50;2.30;;;16.30;99.90;;;;;;4969609;28;20077;-71
2023/08/31 05:00:29;;;;;;;2.60;2.13;;;16.30;99.90;;;;;;4978299;28;20487;-70
2023/08/31 05:02:55;;;;;;;1.83;1.73;;;16.40;99.90;;;;;;4971816;28;20049;-70
2023/08/31 05:05:21;;;;;;;2.03;1.92;;;16.40;99.90;;;;;;4970860;28;20069;-70
2023/08/31 05:07:47;;;;;;;2.35;2.17;;;16.40;99.90;;;;;;4970482;28;20073;-69
2023/08/31 05:10:12;;;;;;;13.88;2.25;;;16.40;99.90;;;;;;4971233;28;20138;-70
2023/08/31 05:12:38;;;;;;;2.15;1.85;;;16.50;99.90;;;;;;4969902;28;20262;-70
2023/08/31 05:15:04;;;;;;;2.45;1.45;;;16.60;99.90;;;;;;4966115;28;20395;-71
2023/08/31 05:17:30;;;;;;;2.67;1.40;;;16.60;99.90;;;;;;4974426;28;20049;-69
2023/08/31 05:19:56;;;;;;;1.38;1.27;;;16.70;99.90;;;;;;4966859;28;20023;-70
2023/08/31 05:22:22;;;;;;;2.85;2.13;;;16.70;99.90;;;;;;4968025;28;20054;-71
2023/08/31 05:24:48;;;;;;;5.07;1.20;;;16.70;99.90;;;;;;4965097;28;20165;-69
2023/08/31 05:27:14;;;;;;;1.63;1.40;;;16.80;99.90;;;;;;4967895;28;20035;-71
2023/08/31 05:29:39;;;;;;;1.45;1.35;;;16.90;99.90;;;;;;4973671;28;20582;-70
2023/08/31 05:32:05;;;;;;;1.75;1.30;;;17.00;99.90;;;;;;4969021;28;20121;-71
2023/08/31 05:34:33;;;;;;;3.47;1.42;;;17.00;99.90;;;;;;4969097;28;20501;-63
2023/08/31 05:36:58;;;;;;;6.10;1.88;;;17.10;99.90;;;;;;4973260;28;20053;-71
2023/08/31 05:39:25;;;;;;;8.73;1.60;;;17.20;99.90;;;;;;4968327;28;20039;-71
2023/08/31 05:41:51;;;;;;;1.17;1.08;;;17.20;99.90;;;;;;4972188;28;20038;-71
2023/08/31 05:44:16;;;;;;;1.20;1.10;;;17.30;99.90;;;;;;4970941;28;20045;-70
2023/08/31 05:46:42;;;;;;;1.80;1.20;;;17.30;99.90;;;;;;4974457;28;20052;-71
2023/08/31 05:49:08;;;;;;;2.00;1.17;;;17.30;99.90;;;;;;4968077;28;20042;-71
2023/08/31 05:51:34;;;;;;;1.30;1.10;;;17.40;99.90;;;;;;4971254;28;20074;-72
2023/08/31 05:54:00;;;;;;;1.33;1.05;;;17.50;99.90;;;;;;4971967;28;20042;-66
2023/08/31 05:56:25;;;;;;;1.20;1.10;;;17.60;99.90;;;;;;4964877;28;20535;-73
2023/08/31 05:58:54;;;;;;;1.00;1.00;;;17.70;99.90;;;;;;4974143;28;20034;-73
2023/08/31 06:01:20;;;;;;;1.67;1.33;;;17.70;99.90;;;;;;4968293;28;20127;-73
2023/08/31 06:03:45;;;;;;;0.90;0.90;;;17.90;99.90;;;;;;4970509;28;20038;-73
2023/08/31 06:06:11;;;;;;;2.65;0.98;;;18.00;99.90;;;;;;4971907;28;20523;-73
2023/08/31 06:08:37;;;;;;;1.33;0.88;;;18.00;99.90;;;;;;4972922;28;20105;-73
2023/08/31 06:11:02;;;;;;;5.35;1.20;;;18.10;99.90;;;;;;4969222;28;20492;-73
2023/08/31 06:13:28;;;;;;;3.00;0.85;;;18.10;99.90;;;;;;4969355;28;20042;-75
2023/08/31 06:15:55;;;;;;;1.33;1.10;;;18.20;99.90;;;;;;4975952;28;20109;-73
2023/08/31 06:18:21;;;;;;;1.48;1.00;;;18.30;99.90;;;;;;4976618;28;20508;-74
2023/08/31 06:20:48;;;;;;;0.73;0.70;;;18.40;99.90;;;;;;4975909;28;20077;-74
2023/08/31 06:23:14;;;;;;;0.95;0.90;;;18.40;99.90;;;;;;4974750;28;20038;-73
2023/08/31 06:25:39;;;;;;;0.45;0.45;;;18.50;99.90;;;;;;4973763;28;20108;-73
2023/08/31 06:28:08;;;;;;;1.45;0.60;;;18.50;99.90;;;;;;4977580;28;20037;-74
2023/08/31 06:30:34;;;;;;;1.60;0.70;;;18.50;99.90;;;;;;4972582;28;20030;-74
2023/08/31 06:33:00;;;;;;;0.73;0.50;;;18.60;99.90;;;;;;4974226;28;20034;-74
2023/08/31 06:35:26;;;;;;;2.97;0.88;;;18.60;99.90;;;;;;4969294;28;20035;-73
2023/08/31 06:37:51;;;;;;;0.68;0.65;;;18.60;99.90;;;;;;4973866;28;20050;-74
2023/08/31 06:40:17;;;;;;;1.00;0.75;;;18.60;99.90;;;;;;4970606;28;20042;-74
2023/08/31 06:42:43;;;;;;;1.50;0.50;;;18.70;99.90;;;;;;4975505;28;20682;-73
2023/08/31 06:45:10;;;;;;;0.70;0.70;;;18.80;99.90;;;;;;4976394;28;20041;-70
2023/08/31 06:47:35;;;;;;;0.50;0.50;;;18.80;99.90;;;;;;4968013;28;20038;-74
2023/08/31 06:50:02;;;;;;;0.68;0.68;;;18.90;99.90;;;;;;4978756;28;20026;-74
2023/08/31 06:52:28;;;;;;;0.50;0.50;;;19.00;99.90;;;;;;4968167;28;20460;-74
2023/08/31 06:54:56;;;;;;;3.47;0.77;;;19.10;99.90;;;;;;4973676;28;20034;-74
2023/08/31 06:57:24;;;;;;;0.70;0.70;;;19.20;99.90;;;;;;4968881;28;20035;-74
2023/08/31 06:59:50;;;;;;;1.20;0.75;;;19.20;99.90;;;;;;4974444;28;20034;-73
2023/08/31 07:02:15;;;;;;;0.40;0.40;;;19.30;99.90;;;;;;4972391;28;20490;-74
2023/08/31 07:04:41;;;;;;;0.93;0.60;;;19.30;99.90;;;;;;4969173;28;20096;-70
2023/08/31 07:07:08;;;;;;;0.82;0.60;;;19.30;99.90;;;;;;4970650;28;20813;-70
2023/08/31 07:09:34;;;;;;;0.57;0.57;;;19.20;99.90;;;;;;4971061;28;20053;-70
2023/08/31 07:12:01;;;;;;;0.43;0.43;;;19.20;99.90;;;;;;4974425;28;20034;-70
2023/08/31 07:14:27;;;;;;;1.25;0.50;;;19.20;99.90;;;;;;4971750;28;20037;-70
2023/08/31 07:16:52;;;;;;;0.95;0.60;;;19.30;99.90;;;;;;4972840;28;20041;-70
2023/08/31 07:19:18;;;;;;;1.95;0.60;;;19.20;99.90;;;;;;4969930;28;20053;-70
2023/08/31 07:21:43;;;;;;;1.60;0.60;;;19.20;99.90;;;;;;4973079;28;20106;-70
2023/08/31 07:24:09;;;;;;;0.60;0.50;;;19.30;99.90;;;;;;4973441;28;20041;-70
2023/08/31 07:26:35;;;;;;;0.55;0.50;;;19.40;99.90;;;;;;4972257;28;20062;-70
2023/08/31 07:29:04;;;;;;;1.75;0.63;;;19.50;99.90;;;;;;4970072;28;20031;-70
2023/08/31 07:31:30;;;;;;;0.70;0.60;;;19.70;99.90;;;;;;4966590;28;20621;-70
2023/08/31 07:33:56;;;;;;;0.73;0.32;;;19.80;99.90;;;;;;4966110;28;20042;-70
2023/08/31 07:36:22;;;;;;;0.88;0.60;;;19.90;99.90;;;;;;4973110;28;20141;-70
2023/08/31 07:38:48;;;;;;;0.50;0.50;;;19.90;99.90;;;;;;4968647;28;27563;-70
2023/08/31 07:41:14;;;;;;;0.60;0.52;;;19.90;99.90;;;;;;4963064;28;20899;-69
2023/08/31 07:43:40;;;;;;;0.70;0.60;;;20.00;99.90;;;;;;4966252;28;20085;-70
2023/08/31 07:46:05;;;;;;;0.75;0.43;;;20.00;99.90;;;;;;4967755;28;20053;-70
2023/08/31 07:48:31;;;;;;;0.85;0.70;;;20.00;99.90;;;;;;4964913;28;20272;-70
2023/08/31 07:50:56;;;;;;;0.80;0.60;;;20.00;99.90;;;;;;4970919;28;20019;-70
2023/08/31 07:53:22;;;;;;;0.50;0.50;;;20.10;99.90;;;;;;4974694;28;20038;-71
2023/08/31 07:55:56;;;;;;;0.60;0.60;;;20.00;99.90;;;;;;4968313;28;20104;-71
2023/08/31 07:58:22;;;;;;;2.40;0.90;;;20.10;99.90;;;;;;4971702;28;20121;-70
2023/08/31 08:00:48;;;;;;;0.60;0.60;;;20.10;99.90;;;;;;4970159;28;20093;-71
2023/08/31 08:03:14;;;;;;;3.08;0.60;;;20.00;99.90;;;;;;4968497;28;20092;-71
2023/08/31 08:05:41;;;;;;;0.60;0.60;;;20.10;99.90;;;;;;4968569;28;20685;-70
2023/08/31 08:08:07;;;;;;;0.73;0.73;;;20.10;99.90;;;;;;4969719;28;20029;-71
2023/08/31 08:10:32;;;;;;;1.10;0.63;;;20.10;99.90;;;;;;4968608;28;20027;-70
2023/08/31 08:12:58;;;;;;;3.80;0.88;;;20.20;99.90;;;;;;4970260;28;20389;-70
2023/08/31 08:15:24;;;;;;;1.83;0.90;;;20.30;99.90;;;;;;4965993;28;20476;-70
2023/08/31 08:17:50;;;;;;;1.35;0.65;;;20.30;99.90;;;;;;4967597;28;20042;-70
2023/08/31 08:20:15;;;;;;;1.08;0.73;;;20.40;99.90;;;;;;4971161;28;20026;-70
2023/08/31 08:22:41;;;;;;;0.88;0.80;;;20.50;99.90;;;;;;4968507;28;20045;-70
2023/08/31 08:25:07;;;;;;;0.75;0.75;;;20.50;99.90;;;;;;4966334;28;20039;-70
2023/08/31 08:27:33;;;;;;;0.98;0.90;;;20.50;99.90;;;;;;4969678;28;20110;-71
2023/08/31 08:29:59;;;;;;;0.82;0.82;;;20.60;99.90;;;;;;4965901;28;20053;-70
2023/08/31 08:32:25;;;;;;;1.13;0.90;;;20.50;99.90;;;;;;4969990;28;20046;-71
2023/08/31 08:34:51;;;;;;;1.33;0.90;;;20.40;99.90;;;;;;4972427;28;20121;-70
2023/08/31 08:37:17;;;;;;;1.30;1.10;;;20.30;99.90;;;;;;4973739;28;20159;-70
2023/08/31 08:39:43;;;;;;;1.00;0.90;;;20.40;99.90;;;;;;4978051;28;20061;-70
2023/08/31 08:42:10;;;;;;;1.25;1.15;;;20.40;99.90;;;;;;4973610;28;20038;-70
2023/08/31 08:44:36;;;;;;;1.10;1.00;;;20.40;99.90;;;;;;4972488;28;20483;-70
2023/08/31 08:47:03;;;;;;;1.38;1.23;;;20.30;99.90;;;;;;4970841;28;20022;-71
2023/08/31 08:49:31;;;;;;;1.50;1.27;;;20.10;99.90;;;;;;4976351;28;20097;-70
2023/08/31 08:51:57;;;;;;;2.35;1.40;;;19.90;99.90;;;;;;4971565;28;20035;-70
2023/08/31 08:54:23;;;;;;;1.00;0.90;;;19.70;99.90;;;;;;4967478;28;20055;-78
2023/08/31 08:56:49;;;;;;;2.15;1.20;;;19.60;99.90;;;;;;4973769;28;20041;-77
2023/08/31 08:59:14;;;;;;;1.42;1.30;;;19.60;99.90;;;;;;4973396;28;20427;-77
2023/08/31 09:01:40;;;;;;;2.17;1.10;;;19.60;99.90;;;;;;4971837;28;20125;-76
2023/08/31 09:04:06;;;;;;;1.35;1.25;;;19.60;99.90;;;;;;4976498;28;20034;-76
2023/08/31 09:06:32;;;;;;;1.98;1.20;;;19.60;99.90;;;;;;4973232;28;20023;-77
2023/08/31 09:08:58;;;;;;;1.13;1.02;;;19.70;99.90;;;;;;4978020;28;20061;-78
2023/08/31 09:11:25;;;;;;;1.17;1.08;;;19.80;99.90;;;;;;4973491;28;20030;-80
2023/08/31 09:13:56;;;;;;;1.58;1.10;;;19.80;99.90;;;;;;4976114;28;20030;-79
2023/08/31 09:16:28;;;;;;;1.55;1.45;;;19.90;99.90;;;;;;4975105;28;20053;-78
2023/08/31 09:18:55;;;;;;;3.20;1.50;;;20.00;99.90;;;;;;4973888;28;20046;-78
2023/08/31 09:21:21;;;;;;;4.50;1.30;;;20.00;99.90;;;;;;4976265;28;20026;-80
2023/08/31 09:23:59;;;;;;;1.10;1.05;;;20.00;99.90;;;;;;4977996;28;20030;-78
2023/08/31 09:26:25;;;;;;;1.48;1.00;;;20.10;99.90;;;;;;4970019;28;20039;-77
2023/08/31 09:28:51;;;;;;;1.73;1.20;;;20.20;99.90;;;;;;4971762;28;20038;-78
2023/08/31 09:31:17;;;;;;;2.22;1.00;;;20.20;99.90;;;;;;4975222;28;20104;-71
2023/08/31 09:33:52;;;;;;;1.10;1.02;;;20.30;99.90;;;;;;4978809;28;20487;-71
2023/08/31 09:36:19;;;;;;;0.90;0.90;;;20.40;99.90;;;;;;4975862;28;20058;-70
2023/08/31 09:38:45;;;;;;;1.30;1.00;;;20.40;99.90;;;;;;4964700;28;20050;-71
2023/08/31 09:41:11;;;;;;;2.05;0.90;;;20.50;99.90;;;;;;4967994;28;20026;-71
2023/08/31 09:43:37;;;;;;;1.83;0.85;;;20.70;99.90;;;;;;4971790;28;20135;-71
2023/08/31 09:46:05;;;;;;;3.10;1.40;;;20.80;99.90;;;;;;4966643;28;20043;-71
2023/08/31 09:48:31;;;;;;;1.42;1.10;;;20.90;99.90;;;;;;4969548;28;20104;-70
2023/08/31 09:50:57;;;;;;;1.55;0.95;;;21.10;99.90;;;;;;4971996;28;20032;-69
2023/08/31 09:53:29;;;;;;;0.95;0.90;;;21.10;99.90;;;;;;4971834;28;20035;-70
2023/08/31 09:55:56;;;;;;;;;;;21.00;99.90;;;;;;4974501;28;20424;-70
2023/08/31 09:58:22;;;;;;;1.17;1.00;;;21.10;99.90;;;;;;4969566;28;19922;-69
2023/08/31 10:00:51;;;;;;;1.13;1.00;;;21.20;99.90;;;;;;4973083;28;20507;-70
2023/08/31 10:03:17;;;;;;;2.08;0.80;;;21.40;99.90;;;;;;4967761;28;20037;-70
2023/08/31 10:05:43;;;;;;;1.23;1.13;;;21.60;99.90;;;;;;4973174;28;20385;-68
2023/08/31 10:08:10;;;;;;;1.50;1.00;;;21.70;99.90;;;;;;4966532;28;20791;-69
2023/08/31 10:10:37;;;;;;;1.98;0.98;;;21.70;99.90;;;;;;4976311;28;20444;-69
2023/08/31 10:13:05;;;;;;;2.58;1.33;;;21.60;99.90;;;;;;4969263;28;20034;-69
2023/08/31 10:15:35;;;;;;;2.40;1.33;;;21.60;99.90;;;;;;4971853;28;20034;-70
2023/08/31 10:18:02;;;;;;;2.60;1.00;;;21.60;99.90;;;;;;4974727;28;20038;-66
2023/08/31 10:20:33;;;;;;;1.05;0.98;;;21.70;99.90;;;;;;4970703;28;20031;-70
2023/08/31 10:23:03;;;;;;;1.58;0.90;;;21.70;99.90;;;;;;4973093;28;20029;-70
2023/08/31 10:25:54;;;;;;;1.40;1.00;;;21.80;99.90;;;;;;4969265;28;20037;-70
2023/08/31 10:28:24;;;;;;;1.75;1.23;;;21.80;99.90;;;;;;4960609;28;20081;-72
2023/08/31 10:31:03;;;;;;;4.07;2.50;;;21.70;99.90;;;;;;4969657;28;20030;-71
2023/08/31 10:33:34;;;;;;;2.25;1.17;;;21.60;99.90;;;;;;4975965;28;20030;-70
2023/08/31 10:36:00;;;;;;;1.38;1.05;;;21.70;99.90;;;;;;4977427;28;20042;-69
2023/08/31 10:38:33;;;;;;;1.13;1.02;;;21.80;99.90;;;;;;4978836;28;20039;-69
2023/08/31 10:41:08;;;;;;;4.35;1.38;;;21.90;99.90;;;;;;4978466;28;20034;-70
2023/08/31 10:43:44;;;;;;;5.90;1.35;;;21.90;99.90;;;;;;4971036;28;20073;-70
2023/08/31 10:46:19;;;;;;;0.95;0.90;;;21.80;99.90;;;;;;4980206;28;20033;-70
2023/08/31 10:48:56;;;;;;;1.40;1.30;;;21.70;99.90;;;;;;4977132;28;20038;-67
2023/08/31 10:51:32;;;;;;;1.02;0.90;;;21.60;99.90;;;;;;4979758;28;20045;-68
2023/08/31 10:54:20;;;;;;;3.03;1.40;;;21.90;99.90;;;;;;4978655;28;20046;-69
2023/08/31 10:57:05;;;;;;;1.85;1.20;;;22.10;99.90;;;;;;4972868;28;20038;-66
2023/08/31 10:59:53;;;;;;;0.98;0.93;;;22.20;99.90;;;;;;4966659;28;20562;-66
2023/08/31 11:02:41;;;;;;;1.90;1.15;;;22.40;99.90;;;;;;4972134;28;20642;-69
2023/08/31 11:05:11;;;;;;;1.02;1.02;;;22.60;99.90;;;;;;4979138;28;20581;-68
2023/08/31 11:07:40;;;;;;;2.95;1.10;;;22.50;99.90;;;;;;4982035;28;20039;-67
2023/08/31 11:10:11;;;;;;;1.10;0.98;;;22.40;99.90;;;;;;4979829;28;20554;-68
2023/08/31 11:12:38;;;;;;;1.65;0.90;;;22.10;99.90;;;;;;4972887;28;20038;-67
2023/08/31 11:15:04;;;;;;;1.30;1.13;;;22.10;99.90;;;;;;4981367;28;20027;-67
2023/08/31 11:17:33;;;;;;;1.40;1.15;;;22.20;99.90;;;;;;4976657;28;20038;-66
2023/08/31 11:19:59;;;;;;;1.52;1.15;;;22.30;99.90;;;;;;4959387;28;20166;-67
2023/08/31 11:22:26;;;;;;;1.05;1.05;;;22.20;99.90;;;;;;4974884;28;20027;-66
2023/08/31 11:24:51;;;;;;;1.08;1.00;;;22.20;99.90;;;;;;4975445;28;20076;-67
2023/08/31 11:27:21;;;;;;;3.47;1.40;;;22.30;99.90;;;;;;4973548;28;20026;-66
2023/08/31 11:29:47;;;;;;;1.38;1.10;;;22.40;99.90;;;;;;4971250;28;20120;-66
2023/08/31 11:32:13;;;;;;;1.27;1.17;;;22.30;99.90;;;;;;4973368;28;20146;-68
2023/08/31 11:34:43;;;;;;;2.05;1.10;;;22.40;99.90;;;;;;4974381;28;22030;-66
2023/08/31 11:37:10;;;;;;;1.50;1.40;;;22.50;99.90;;;;;;4972193;28;20065;-65
2023/08/31 11:39:39;;;;;;;4.53;1.27;;;22.50;99.90;;;;;;4967168;28;20125;-65
2023/08/31 11:42:05;;;;;;;1.63;1.02;;;22.60;99.90;;;;;;4968324;28;20034;-65
2023/08/31 11:44:31;;;;;;;0.93;0.80;;;22.60;99.90;;;;;;4968420;28;20665;-64
2023/08/31 11:46:57;;;;;;;2.53;1.30;;;22.70;99.90;;;;;;4978895;28;20030;-70
2023/08/31 11:49:23;;;;;;;0.95;0.95;;;22.80;99.90;;;;;;4975083;28;20042;-65
2023/08/31 11:51:50;;;;;;;2.08;1.10;;;22.70;99.90;;;;;;4970691;28;20507;-64
2023/08/31 11:54:16;;;;;;;1.30;1.20;;;22.70;99.90;;;;;;4970896;28;20033;-64
2023/08/31 11:56:44;;;;;;;4.00;1.38;;;22.70;99.90;;;;;;4973331;28;20041;-65
2023/08/31 11:59:14;;;;;;;1.20;1.10;;;22.70;99.90;;;;;;4969020;28;20112;-65
2023/08/31 12:01:45;;;;;;;1.30;1.20;;;22.80;99.90;;;;;;4967380;28;20041;-66
2023/08/31 12:04:22;;;;;;;1.30;0.98;;;23.00;99.90;;;;;;4960833;28;20869;-64
2023/08/31 12:06:51;;;;;;;1.25;0.95;;;23.10;99.90;;;;;;4969803;28;20073;-64
2023/08/31 12:09:17;;;;;;;1.45;1.10;;;23.10;99.90;;;;;;4969652;28;20040;-65
2023/08/31 12:11:49;;;;;;;1.38;0.88;;;23.10;99.90;;;;;;4969062;28;20470;-66
2023/08/31 12:14:19;;;;;;;;;;;23.10;99.90;;;;;;4968920;28;20030;-65
2023/08/31 12:16:44;;;;;;;1.20;0.85;;;23.10;99.90;;;;;;4965856;28;19953;-65
2023/08/31 12:19:10;;;;;;;0.90;0.90;;;23.10;99.90;;;;;;4968105;28;20110;-68
2023/08/31 12:21:36;;;;;;;1.20;1.08;;;23.00;99.90;;;;;;4977022;28;20103;-69
2023/08/31 12:24:03;;;;;;;0.85;0.77;;;23.00;99.90;;;;;;4971869;28;20035;-69
2023/08/31 12:26:29;;;;;;;2.38;1.00;;;23.00;99.90;;;;;;4971096;28;20038;-68
2023/08/31 12:28:54;;;;;;;1.83;1.05;;;23.20;99.90;;;;;;4982242;28;20719;-69
2023/08/31 12:31:22;;;;;;;2.25;0.90;;;23.30;99.90;;;;;;4975537;28;20018;-69
2023/08/31 12:33:47;;;;;;;1.05;1.02;;;23.40;99.90;;;;;;4977496;28;20029;-69
2023/08/31 12:36:13;;;;;;;0.88;0.70;;;23.40;99.90;;;;;;4972504;28;20062;-69
2023/08/31 12:38:39;;;;;;;0.80;0.70;;;23.30;99.90;;;;;;4977565;28;20062;-68
2023/08/31 12:41:04;;;;;;;1.35;1.00;;;23.10;99.90;;;;;;4976772;28;20034;-69
2023/08/31 12:43:31;;;;;;;1.55;1.08;;;22.80;99.90;;;;;;4982908;28;20591;-70
2023/08/31 12:45:57;;;;;;;1.85;0.88;;;22.60;99.90;;;;;;4980021;28;20454;-69
2023/08/31 12:48:23;;;;;;;1.63;0.90;;;22.70;99.90;;;;;;4971328;28;20117;-66